sensor_id;sensor_type;location;lat;lon;timestamp;temperature;humidity
54168;DHT22;68429;50.958;3.592;2023-06-24T00:01:24;16.40;99.90
54168;DHT22;68429;50.958;3.592;2023-06-24T00:03:50;16.40;99.90
54168;DHT22;68429;50.958;3.592;2023-06-24T00:06:19;16.30;99.90
54168;DHT22;68429;50.958;3.592;2023-06-24T00:08:46;16.20;99.90
54168;DHT22;68429;50.958;3.592;2023-06-24T00:11:12;16.10;99.90
54168;DHT22;68429;50.958;3.592;2023-06-24T00:13:39;15.90;99.90
54168;DHT22;68429;50.958;3.592;2023-06-24T00:16:05;15.90;99.90
54168;DHT22;68429;50.958;3.592;2023-06-24T00:18:32;15.90;99.90
54168;DHT22;68429;50.958;3.592;2023-06-24T00:20:58;16.00;99.90
54168;DHT22;68429;50.958;3.592;2023-06-24T00:23:24;16.20;99.90
54168;DHT22;68429;50.958;3.592;2023-06-24T00:25:53;16.10;99.90
54168;DHT22;68429;50.958;3.592;2023-06-24T00:28:20;16.10;99.90
54168;DHT22;68429;50.958;3.592;2023-06-24T00:30:47;16.00;99.90
54168;DHT22;68429;50.958;3.592;2023-06-24T00:33:12;15.90;99.90
54168;DHT22;68429;50.958;3.592;2023-06-24T00:35:39;15.70;99.90
54168;DHT22;68429;50.958;3.592;2023-06-24T00:38:05;15.50;99.90
54168;DHT22;68429;50.958;3.592;2023-06-24T00:40:31;15.50;99.90
54168;DHT22;68429;50.958;3.592;2023-06-24T00:42:58;15.30;99.90
54168;DHT22;68429;50.958;3.592;2023-06-24T00:45:24;15.30;99.90
54168;DHT22;68429;50.958;3.592;2023-06-24T00:47:51;15.20;99.90
54168;DHT22;68429;50.958;3.592;2023-06-24T00:50:17;15.30;99.90
54168;DHT22;68429;50.958;3.592;2023-06-24T00:52:43;15.30;99.90
54168;DHT22;68429;50.958;3.592;2023-06-24T00:55:11;15.40;99.90
54168;DHT22;68429;50.958;3.592;2023-06-24T00:57:44;15.40;99.90
54168;DHT22;68429;50.958;3.592;2023-06-24T01:00:10;15.40;99.90
54168;DHT22;68429;50.958;3.592;2023-06-24T01:02:40;15.40;99.90
54168;DHT22;68429;50.958;3.592;2023-06-24T01:05:08;15.40;99.90
54168;DHT22;68429;50.958;3.592;2023-06-24T01:07:35;15.40;99.90
54168;DHT22;68429;50.958;3.592;2023-06-24T01:10:06;15.40;99.90
54168;DHT22;68429;50.958;3.592;2023-06-24T01:12:37;15.40;99.90
54168;DHT22;68429;50.958;3.592;2023-06-24T01:15:10;15.30;99.90
54168;DHT22;68429;50.958;3.592;2023-06-24T01:29:19;15.20;99.90
54168;DHT22;68429;50.958;3.592;2023-06-24T01:37:16;15.20;99.90
54168;DHT22;68429;50.958;3.592;2023-06-24T01:39:49;15.20;99.90
54168;DHT22;68429;50.958;3.592;2023-06-24T01:42:16;15.30;99.90
54168;DHT22;68429;50.958;3.592;2023-06-24T01:44:45;15.20;99.90
54168;DHT22;68429;50.958;3.592;2023-06-24T01:47:16;15.10;99.90
54168;DHT22;68429;50.958;3.592;2023-06-24T01:49:45;15.10;99.90
54168;DHT22;68429;50.958;3.592;2023-06-24T01:52:11;15.00;99.90
54168;DHT22;68429;50.958;3.592;2023-06-24T01:54:39;15.00;99.90
54168;DHT22;68429;50.958;3.592;2023-06-24T01:57:08;15.10;99.90
54168;DHT22;68429;50.958;3.592;2023-06-24T01:59:38;15.10;99.90
54168;DHT22;68429;50.958;3.592;2023-06-24T02:02:06;15.10;99.90
54168;DHT22;68429;50.958;3.592;2023-06-24T02:04:32;15.00;99.90
54168;DHT22;68429;50.958;3.592;2023-06-24T02:07:01;14.90;99.90
54168;DHT22;68429;50.958;3.592;2023-06-24T02:09:29;14.80;99.90
54168;DHT22;68429;50.958;3.592;2023-06-24T02:11:57;14.80;99.90
54168;DHT22;68429;50.958;3.592;2023-06-24T02:14:25;14.80;99.90
54168;DHT22;68429;50.958;3.592;2023-06-24T02:16:52;14.70;99.90
54168;DHT22;68429;50.958;3.592;2023-06-24T02:19:29;14.80;99.90
54168;DHT22;68429;50.958;3.592;2023-06-24T02:21:56;14.80;99.90
54168;DHT22;68429;50.958;3.592;2023-06-24T02:24:23;14.80;99.90
54168;DHT22;68429;50.958;3.592;2023-06-24T02:26:50;14.70;99.90
54168;DHT22;68429;50.958;3.592;2023-06-24T02:29:17;14.70;99.90
54168;DHT22;68429;50.958;3.592;2023-06-24T02:31:43;14.60;99.90
54168;DHT22;68429;50.958;3.592;2023-06-24T02:34:09;14.60;99.90
54168;DHT22;68429;50.958;3.592;2023-06-24T02:36:35;14.60;99.90
54168;DHT22;68429;50.958;3.592;2023-06-24T02:39:01;14.60;99.90
54168;DHT22;68429;50.958;3.592;2023-06-24T02:41:27;14.60;99.90
54168;DHT22;68429;50.958;3.592;2023-06-24T02:43:52;14.60;99.90
54168;DHT22;68429;50.958;3.592;2023-06-24T02:46:19;14.60;99.90
54168;DHT22;68429;50.958;3.592;2023-06-24T02:48:47;14.60;99.90
54168;DHT22;68429;50.958;3.592;2023-06-24T02:51:13;14.50;99.90
54168;DHT22;68429;50.958;3.592;2023-06-24T02:53:39;14.60;99.90
54168;DHT22;68429;50.958;3.592;2023-06-24T02:56:08;14.50;99.90
54168;DHT22;68429;50.958;3.592;2023-06-24T02:58:36;14.50;99.90
54168;DHT22;68429;50.958;3.592;2023-06-24T03:01:04;14.40;99.90
54168;DHT22;68429;50.958;3.592;2023-06-24T03:03:32;14.40;99.90
54168;DHT22;68429;50.958;3.592;2023-06-24T03:05:58;14.30;99.90
54168;DHT22;68429;50.958;3.592;2023-06-24T03:08:25;14.30;99.90
54168;DHT22;68429;50.958;3.592;2023-06-24T03:10:54;14.30;99.90
54168;DHT22;68429;50.958;3.592;2023-06-24T03:13:20;14.30;99.90
54168;DHT22;68429;50.958;3.592;2023-06-24T03:15:46;14.20;99.90
54168;DHT22;68429;50.958;3.592;2023-06-24T03:18:11;14.20;99.90
54168;DHT22;68429;50.958;3.592;2023-06-24T03:20:37;14.20;99.90
54168;DHT22;68429;50.958;3.592;2023-06-24T03:23:08;14.20;99.90
54168;DHT22;68429;50.958;3.592;2023-06-24T03:25:34;14.20;99.90
54168;DHT22;68429;50.958;3.592;2023-06-24T03:28:01;14.20;99.90
54168;DHT22;68429;50.958;3.592;2023-06-24T03:30:29;14.30;99.90
54168;DHT22;68429;50.958;3.592;2023-06-24T03:32:55;14.20;99.90
54168;DHT22;68429;50.958;3.592;2023-06-24T03:35:23;14.20;99.90
54168;DHT22;68429;50.958;3.592;2023-06-24T03:37:49;14.10;99.90
54168;DHT22;68429;50.958;3.592;2023-06-24T03:40:15;14.10;99.90
54168;DHT22;68429;50.958;3.592;2023-06-24T03:42:40;14.10;99.90
54168;DHT22;68429;50.958;3.592;2023-06-24T03:45:06;14.20;99.90
54168;DHT22;68429;50.958;3.592;2023-06-24T03:47:32;14.20;99.90
54168;DHT22;68429;50.958;3.592;2023-06-24T03:49:58;14.20;99.90
54168;DHT22;68429;50.958;3.592;2023-06-24T03:52:24;14.20;99.90
54168;DHT22;68429;50.958;3.592;2023-06-24T03:54:50;14.30;99.90
54168;DHT22;68429;50.958;3.592;2023-06-24T03:57:16;14.30;99.90
54168;DHT22;68429;50.958;3.592;2023-06-24T03:59:42;14.30;99.90
54168;DHT22;68429;50.958;3.592;2023-06-24T04:02:07;14.40;99.90
54168;DHT22;68429;50.958;3.592;2023-06-24T04:04:34;14.40;99.90
54168;DHT22;68429;50.958;3.592;2023-06-24T04:07:00;14.50;99.90
54168;DHT22;68429;50.958;3.592;2023-06-24T04:09:26;14.40;99.90
54168;DHT22;68429;50.958;3.592;2023-06-24T04:11:51;14.50;99.90
54168;DHT22;68429;50.958;3.592;2023-06-24T04:14:17;14.50;99.90
54168;DHT22;68429;50.958;3.592;2023-06-24T04:16:43;14.60;99.90
54168;DHT22;68429;50.958;3.592;2023-06-24T04:19:08;14.70;99.90
54168;DHT22;68429;50.958;3.592;2023-06-24T04:21:34;14.90;99.90
54168;DHT22;68429;50.958;3.592;2023-06-24T04:24:00;15.00;99.90
54168;DHT22;68429;50.958;3.592;2023-06-24T04:26:25;15.00;99.90
54168;DHT22;68429;50.958;3.592;2023-06-24T04:28:51;15.10;99.90
54168;DHT22;68429;50.958;3.592;2023-06-24T04:31:17;15.10;99.90
54168;DHT22;68429;50.958;3.592;2023-06-24T04:33:42;15.20;99.90
54168;DHT22;68429;50.958;3.592;2023-06-24T04:36:08;15.30;99.90
54168;DHT22;68429;50.958;3.592;2023-06-24T04:38:34;15.30;99.90
54168;DHT22;68429;50.958;3.592;2023-06-24T04:40:59;15.50;99.90
54168;DHT22;68429;50.958;3.592;2023-06-24T04:43:26;15.60;99.90
54168;DHT22;68429;50.958;3.592;2023-06-24T04:45:53;15.70;99.90
54168;DHT22;68429;50.958;3.592;2023-06-24T04:48:22;15.80;99.90
54168;DHT22;68429;50.958;3.592;2023-06-24T04:50:48;16.00;99.90
54168;DHT22;68429;50.958;3.592;2023-06-24T04:53:14;16.00;99.90
54168;DHT22;68429;50.958;3.592;2023-06-24T04:55:39;16.00;99.90
54168;DHT22;68429;50.958;3.592;2023-06-24T04:58:05;16.00;99.90
54168;DHT22;68429;50.958;3.592;2023-06-24T05:00:31;16.10;99.90
54168;DHT22;68429;50.958;3.592;2023-06-24T05:02:56;16.00;99.90
54168;DHT22;68429;50.958;3.592;2023-06-24T05:05:22;16.10;99.90
54168;DHT22;68429;50.958;3.592;2023-06-24T05:07:48;16.10;99.90
54168;DHT22;68429;50.958;3.592;2023-06-24T05:10:14;16.00;99.90
54168;DHT22;68429;50.958;3.592;2023-06-24T05:12:39;15.90;99.90
54168;DHT22;68429;50.958;3.592;2023-06-24T05:15:05;16.00;99.90
54168;DHT22;68429;50.958;3.592;2023-06-24T05:17:31;16.00;99.90
54168;DHT22;68429;50.958;3.592;2023-06-24T05:19:57;16.10;99.90
54168;DHT22;68429;50.958;3.592;2023-06-24T05:22:23;16.20;99.90
54168;DHT22;68429;50.958;3.592;2023-06-24T05:24:49;16.30;99.90
54168;DHT22;68429;50.958;3.592;2023-06-24T05:27:14;16.40;99.90
54168;DHT22;68429;50.958;3.592;2023-06-24T05:29:40;16.50;99.90
54168;DHT22;68429;50.958;3.592;2023-06-24T05:32:06;16.60;99.90
54168;DHT22;68429;50.958;3.592;2023-06-24T05:34:32;16.70;99.90
54168;DHT22;68429;50.958;3.592;2023-06-24T05:36:59;16.70;99.90
54168;DHT22;68429;50.958;3.592;2023-06-24T05:39:24;16.80;99.90
54168;DHT22;68429;50.958;3.592;2023-06-24T05:41:50;16.90;99.90
54168;DHT22;68429;50.958;3.592;2023-06-24T05:44:16;16.90;99.90
54168;DHT22;68429;50.958;3.592;2023-06-24T05:46:44;17.00;99.90
54168;DHT22;68429;50.958;3.592;2023-06-24T05:49:10;17.10;99.90
54168;DHT22;68429;50.958;3.592;2023-06-24T05:51:35;17.40;99.90
54168;DHT22;68429;50.958;3.592;2023-06-24T05:54:01;17.50;99.90
54168;DHT22;68429;50.958;3.592;2023-06-24T05:56:27;17.50;99.90
54168;DHT22;68429;50.958;3.592;2023-06-24T05:58:53;17.70;99.90
54168;DHT22;68429;50.958;3.592;2023-06-24T06:01:18;17.80;99.90
54168;DHT22;68429;50.958;3.592;2023-06-24T06:03:44;17.80;99.90
54168;DHT22;68429;50.958;3.592;2023-06-24T06:06:10;17.80;99.90
54168;DHT22;68429;50.958;3.592;2023-06-24T06:08:35;18.20;99.90
54168;DHT22;68429;50.958;3.592;2023-06-24T06:11:01;18.70;99.90
54168;DHT22;68429;50.958;3.592;2023-06-24T06:13:28;18.80;99.90
54168;DHT22;68429;50.958;3.592;2023-06-24T06:15:54;18.70;99.90
54168;DHT22;68429;50.958;3.592;2023-06-24T06:18:20;18.60;99.90
54168;DHT22;68429;50.958;3.592;2023-06-24T06:20:45;18.70;99.90
54168;DHT22;68429;50.958;3.592;2023-06-24T06:23:11;18.90;99.90
54168;DHT22;68429;50.958;3.592;2023-06-24T06:25:38;19.00;99.90
54168;DHT22;68429;50.958;3.592;2023-06-24T06:28:04;19.00;99.90
54168;DHT22;68429;50.958;3.592;2023-06-24T06:30:30;18.90;99.90
54168;DHT22;68429;50.958;3.592;2023-06-24T06:32:56;18.80;99.90
54168;DHT22;68429;50.958;3.592;2023-06-24T06:35:21;18.70;99.90
54168;DHT22;68429;50.958;3.592;2023-06-24T06:37:47;18.70;99.90
54168;DHT22;68429;50.958;3.592;2023-06-24T06:40:20;18.70;99.90
54168;DHT22;68429;50.958;3.592;2023-06-24T06:42:46;18.70;99.90
54168;DHT22;68429;50.958;3.592;2023-06-24T06:45:12;18.50;99.90
54168;DHT22;68429;50.958;3.592;2023-06-24T06:47:38;18.80;99.90
54168;DHT22;68429;50.958;3.592;2023-06-24T06:50:04;18.70;99.90
54168;DHT22;68429;50.958;3.592;2023-06-24T06:52:30;18.90;99.90
54168;DHT22;68429;50.958;3.592;2023-06-24T06:54:55;19.10;99.90
54168;DHT22;68429;50.958;3.592;2023-06-24T06:57:22;19.10;99.90
54168;DHT22;68429;50.958;3.592;2023-06-24T06:59:48;19.20;99.90
54168;DHT22;68429;50.958;3.592;2023-06-24T07:02:16;19.20;99.90
54168;DHT22;68429;50.958;3.592;2023-06-24T07:04:42;19.20;99.90
54168;DHT22;68429;50.958;3.592;2023-06-24T07:07:08;19.30;99.90
54168;DHT22;68429;50.958;3.592;2023-06-24T07:09:34;19.30;99.90
54168;DHT22;68429;50.958;3.592;2023-06-24T07:12:00;19.30;99.90
54168;DHT22;68429;50.958;3.592;2023-06-24T07:14:26;19.40;99.90
54168;DHT22;68429;50.958;3.592;2023-06-24T07:16:52;19.50;99.90
54168;DHT22;68429;50.958;3.592;2023-06-24T07:19:19;19.30;99.90
54168;DHT22;68429;50.958;3.592;2023-06-24T07:21:45;19.50;99.90
54168;DHT22;68429;50.958;3.592;2023-06-24T07:24:10;19.80;99.90
54168;DHT22;68429;50.958;3.592;2023-06-24T07:26:36;20.00;99.90
54168;DHT22;68429;50.958;3.592;2023-06-24T07:29:05;20.10;99.90
54168;DHT22;68429;50.958;3.592;2023-06-24T07:31:31;20.00;99.90
54168;DHT22;68429;50.958;3.592;2023-06-24T07:33:56;20.30;99.90
54168;DHT22;68429;50.958;3.592;2023-06-24T07:36:22;20.10;99.90
54168;DHT22;68429;50.958;3.592;2023-06-24T07:38:48;20.00;99.90
54168;DHT22;68429;50.958;3.592;2023-06-24T07:41:13;20.10;99.90
54168;DHT22;68429;50.958;3.592;2023-06-24T07:43:39;20.00;99.90
54168;DHT22;68429;50.958;3.592;2023-06-24T07:46:05;20.20;99.90
54168;DHT22;68429;50.958;3.592;2023-06-24T07:48:30;20.30;99.90
54168;DHT22;68429;50.958;3.592;2023-06-24T07:50:56;20.50;99.90
54168;DHT22;68429;50.958;3.592;2023-06-24T07:53:21;20.30;99.90
54168;DHT22;68429;50.958;3.592;2023-06-24T07:55:47;20.40;99.90
54168;DHT22;68429;50.958;3.592;2023-06-24T07:58:13;20.30;99.90
54168;DHT22;68429;50.958;3.592;2023-06-24T08:00:38;20.50;99.90
54168;DHT22;68429;50.958;3.592;2023-06-24T08:03:04;20.50;99.90
54168;DHT22;68429;50.958;3.592;2023-06-24T08:05:30;20.70;99.90
54168;DHT22;68429;50.958;3.592;2023-06-24T08:07:55;20.50;99.90
54168;DHT22;68429;50.958;3.592;2023-06-24T08:10:21;20.80;99.90
54168;DHT22;68429;50.958;3.592;2023-06-24T08:12:47;21.10;99.90
54168;DHT22;68429;50.958;3.592;2023-06-24T08:15:12;21.40;99.90
54168;DHT22;68429;50.958;3.592;2023-06-24T08:17:38;21.40;99.90
54168;DHT22;68429;50.958;3.592;2023-06-24T08:20:04;21.40;99.90
54168;DHT22;68429;50.958;3.592;2023-06-24T08:22:30;21.30;99.90
54168;DHT22;68429;50.958;3.592;2023-06-24T08:24:56;21.40;99.90
54168;DHT22;68429;50.958;3.592;2023-06-24T08:27:21;21.70;99.90
54168;DHT22;68429;50.958;3.592;2023-06-24T08:29:47;21.70;99.90
54168;DHT22;68429;50.958;3.592;2023-06-24T08:32:13;21.60;99.90
54168;DHT22;68429;50.958;3.592;2023-06-24T08:34:39;21.90;99.90
54168;DHT22;68429;50.958;3.592;2023-06-24T08:37:05;22.20;99.90
54168;DHT22;68429;50.958;3.592;2023-06-24T08:39:30;22.10;99.90
54168;DHT22;68429;50.958;3.592;2023-06-24T08:41:56;22.30;99.90
54168;DHT22;68429;50.958;3.592;2023-06-24T08:44:22;22.60;99.90
54168;DHT22;68429;50.958;3.592;2023-06-24T08:46:48;22.70;99.90
54168;DHT22;68429;50.958;3.592;2023-06-24T08:54:24;22.50;99.90
54168;DHT22;68429;50.958;3.592;2023-06-24T08:56:51;22.80;99.90
54168;DHT22;68429;50.958;3.592;2023-06-24T08:59:17;23.00;99.90
54168;DHT22;68429;50.958;3.592;2023-06-24T09:01:48;23.20;99.90
54168;DHT22;68429;50.958;3.592;2023-06-24T09:04:13;23.00;99.90
54168;DHT22;68429;50.958;3.592;2023-06-24T09:06:39;23.00;99.90
54168;DHT22;68429;50.958;3.592;2023-06-24T09:09:05;23.10;99.90
54168;DHT22;68429;50.958;3.592;2023-06-24T09:11:42;23.20;99.90
54168;DHT22;68429;50.958;3.592;2023-06-24T09:14:16;23.40;99.90
54168;DHT22;68429;50.958;3.592;2023-06-24T09:16:41;23.30;99.90
54168;DHT22;68429;50.958;3.592;2023-06-24T09:19:07;23.70;99.90
54168;DHT22;68429;50.958;3.592;2023-06-24T09:21:32;23.80;99.90
54168;DHT22;68429;50.958;3.592;2023-06-24T09:24:00;24.00;99.90
54168;DHT22;68429;50.958;3.592;2023-06-24T09:26:27;24.00;99.90
54168;DHT22;68429;50.958;3.592;2023-06-24T09:28:53;24.20;99.90
54168;DHT22;68429;50.958;3.592;2023-06-24T09:31:23;24.40;99.90
54168;DHT22;68429;50.958;3.592;2023-06-24T09:33:49;24.40;99.90
54168;DHT22;68429;50.958;3.592;2023-06-24T09:36:15;24.50;99.90
54168;DHT22;68429;50.958;3.592;2023-06-24T09:38:42;24.80;99.90
54168;DHT22;68429;50.958;3.592;2023-06-24T09:41:09;25.10;99.90
54168;DHT22;68429;50.958;3.592;2023-06-24T09:43:36;25.30;99.90
54168;DHT22;68429;50.958;3.592;2023-06-24T09:46:05;25.40;99.60
54168;DHT22;68429;50.958;3.592;2023-06-24T09:48:32;25.20;99.50
54168;DHT22;68429;50.958;3.592;2023-06-24T09:51:00;25.30;99.10
54168;DHT22;68429;50.958;3.592;2023-06-24T09:53:34;25.30;98.80
54168;DHT22;68429;50.958;3.592;2023-06-24T09:56:01;25.20;98.60
54168;DHT22;68429;50.958;3.592;2023-06-24T09:58:32;24.80;99.10
54168;DHT22;68429;50.958;3.592;2023-06-24T10:01:02;25.30;99.90
54168;DHT22;68429;50.958;3.592;2023-06-24T10:03:30;25.90;98.60
54168;DHT22;68429;50.958;3.592;2023-06-24T10:05:57;26.10;98.30
54168;DHT22;68429;50.958;3.592;2023-06-24T10:08:23;26.80;98.10
54168;DHT22;68429;50.958;3.592;2023-06-24T10:10:49;27.80;96.60
54168;DHT22;68429;50.958;3.592;2023-06-24T10:13:15;28.20;96.10
54168;DHT22;68429;50.958;3.592;2023-06-24T10:15:41;29.30;93.90
54168;DHT22;68429;50.958;3.592;2023-06-24T10:18:42;30.50;92.90
54168;DHT22;68429;50.958;3.592;2023-06-24T10:21:09;32.60;92.10
54168;DHT22;68429;50.958;3.592;2023-06-24T10:23:51;32.10;90.60
54168;DHT22;68429;50.958;3.592;2023-06-24T10:26:27;32.50;90.20
54168;DHT22;68429;50.958;3.592;2023-06-24T10:29:08;31.80;90.70
54168;DHT22;68429;50.958;3.592;2023-06-24T10:34:32;31.30;90.80
54168;DHT22;68429;50.958;3.592;2023-06-24T10:37:09;31.70;90.90
54168;DHT22;68429;50.958;3.592;2023-06-24T10:42:40;31.20;90.80
54168;DHT22;68429;50.958;3.592;2023-06-24T10:47:38;31.40;90.70
54168;DHT22;68429;50.958;3.592;2023-06-24T10:50:05;32.10;90.30
54168;DHT22;68429;50.958;3.592;2023-06-24T10:52:31;32.50;89.00
54168;DHT22;68429;50.958;3.592;2023-06-24T10:54:58;34.10;85.40
54168;DHT22;68429;50.958;3.592;2023-06-24T10:57:27;33.60;83.80
54168;DHT22;68429;50.958;3.592;2023-06-24T10:59:54;32.70;86.60
54168;DHT22;68429;50.958;3.592;2023-06-24T11:02:25;33.20;83.90
54168;DHT22;68429;50.958;3.592;2023-06-24T11:04:58;33.70;84.40
54168;DHT22;68429;50.958;3.592;2023-06-24T11:07:26;33.60;82.30
54168;DHT22;68429;50.958;3.592;2023-06-24T11:10:06;32.50;83.40
54168;DHT22;68429;50.958;3.592;2023-06-24T11:12:36;33.40;81.80
54168;DHT22;68429;50.958;3.592;2023-06-24T11:15:04;33.90;80.60
54168;DHT22;68429;50.958;3.592;2023-06-24T11:17:30;33.90;81.20
54168;DHT22;68429;50.958;3.592;2023-06-24T11:19:57;33.90;80.10
54168;DHT22;68429;50.958;3.592;2023-06-24T11:22:24;34.80;78.70
54168;DHT22;68429;50.958;3.592;2023-06-24T11:24:51;34.40;78.20
54168;DHT22;68429;50.958;3.592;2023-06-24T11:27:23;34.00;78.90
54168;DHT22;68429;50.958;3.592;2023-06-24T11:29:52;34.70;79.10
54168;DHT22;68429;50.958;3.592;2023-06-24T11:32:18;35.90;75.40
54168;DHT22;68429;50.958;3.592;2023-06-24T11:34:44;37.00;72.20
54168;DHT22;68429;50.958;3.592;2023-06-24T11:37:15;38.10;69.80
54168;DHT22;68429;50.958;3.592;2023-06-24T11:39:41;39.70;69.00
54168;DHT22;68429;50.958;3.592;2023-06-24T11:42:08;38.00;65.80
54168;DHT22;68429;50.958;3.592;2023-06-24T11:44:34;38.10;66.40
54168;DHT22;68429;50.958;3.592;2023-06-24T11:47:07;38.70;65.80
54168;DHT22;68429;50.958;3.592;2023-06-24T11:49:51;38.90;64.30
54168;DHT22;68429;50.958;3.592;2023-06-24T11:52:18;38.10;65.80
54168;DHT22;68429;50.958;3.592;2023-06-24T11:54:43;39.10;66.10
54168;DHT22;68429;50.958;3.592;2023-06-24T11:57:09;39.90;64.10
54168;DHT22;68429;50.958;3.592;2023-06-24T11:59:35;39.40;62.50
54168;DHT22;68429;50.958;3.592;2023-06-24T12:02:01;38.90;61.40
54168;DHT22;68429;50.958;3.592;2023-06-24T12:04:32;37.60;63.40
54168;DHT22;68429;50.958;3.592;2023-06-24T12:06:59;38.60;61.90
54168;DHT22;68429;50.958;3.592;2023-06-24T12:09:25;38.90;60.60
54168;DHT22;68429;50.958;3.592;2023-06-24T12:11:51;39.90;59.20
54168;DHT22;68429;50.958;3.592;2023-06-24T12:14:17;41.50;58.60
54168;DHT22;68429;50.958;3.592;2023-06-24T12:16:43;40.20;58.10
54168;DHT22;68429;50.958;3.592;2023-06-24T12:19:08;38.60;60.30
54168;DHT22;68429;50.958;3.592;2023-06-24T12:21:35;38.50;59.80
54168;DHT22;68429;50.958;3.592;2023-06-24T12:24:01;38.30;61.30
54168;DHT22;68429;50.958;3.592;2023-06-24T12:26:27;38.70;59.50
54168;DHT22;68429;50.958;3.592;2023-06-24T12:28:56;38.90;60.10
54168;DHT22;68429;50.958;3.592;2023-06-24T12:31:23;38.90;60.40
54168;DHT22;68429;50.958;3.592;2023-06-24T12:33:51;39.90;59.00
54168;DHT22;68429;50.958;3.592;2023-06-24T12:36:17;38.60;59.70
54168;DHT22;68429;50.958;3.592;2023-06-24T12:38:43;38.30;59.50
54168;DHT22;68429;50.958;3.592;2023-06-24T12:41:09;38.30;59.20
54168;DHT22;68429;50.958;3.592;2023-06-24T12:43:35;38.80;58.50
54168;DHT22;68429;50.958;3.592;2023-06-24T12:46:00;36.60;59.90
54168;DHT22;68429;50.958;3.592;2023-06-24T12:48:26;35.10;60.30
54168;DHT22;68429;50.958;3.592;2023-06-24T12:50:52;34.40;62.30
54168;DHT22;68429;50.958;3.592;2023-06-24T12:53:22;36.70;63.00
54168;DHT22;68429;50.958;3.592;2023-06-24T12:55:47;39.00;58.20
54168;DHT22;68429;50.958;3.592;2023-06-24T12:58:22;38.20;59.10
54168;DHT22;68429;50.958;3.592;2023-06-24T13:00:48;37.60;59.60
54168;DHT22;68429;50.958;3.592;2023-06-24T13:03:13;38.20;60.90
54168;DHT22;68429;50.958;3.592;2023-06-24T13:05:39;38.80;59.10
54168;DHT22;68429;50.958;3.592;2023-06-24T13:08:05;37.00;59.20
54168;DHT22;68429;50.958;3.592;2023-06-24T13:10:31;37.10;62.50
54168;DHT22;68429;50.958;3.592;2023-06-24T13:12:57;38.10;58.70
54168;DHT22;68429;50.958;3.592;2023-06-24T13:15:23;38.10;58.00
54168;DHT22;68429;50.958;3.592;2023-06-24T13:17:50;37.30;60.60
54168;DHT22;68429;50.958;3.592;2023-06-24T13:20:16;37.30;58.70
54168;DHT22;68429;50.958;3.592;2023-06-24T13:22:41;38.60;59.70
54168;DHT22;68429;50.958;3.592;2023-06-24T13:25:07;39.10;58.90
54168;DHT22;68429;50.958;3.592;2023-06-24T13:27:33;39.20;59.30
54168;DHT22;68429;50.958;3.592;2023-06-24T13:29:59;38.80;58.90
54168;DHT22;68429;50.958;3.592;2023-06-24T13:32:24;39.10;58.50
54168;DHT22;68429;50.958;3.592;2023-06-24T13:34:50;38.90;57.20
54168;DHT22;68429;50.958;3.592;2023-06-24T13:37:16;36.80;59.60
54168;DHT22;68429;50.958;3.592;2023-06-24T13:39:41;37.40;59.00
54168;DHT22;68429;50.958;3.592;2023-06-24T13:42:07;36.80;58.70
54168;DHT22;68429;50.958;3.592;2023-06-24T13:44:33;36.40;61.40
54168;DHT22;68429;50.958;3.592;2023-06-24T13:46:59;36.50;61.20
54168;DHT22;68429;50.958;3.592;2023-06-24T13:49:25;37.30;61.70
54168;DHT22;68429;50.958;3.592;2023-06-24T13:51:51;36.40;60.20
54168;DHT22;68429;50.958;3.592;2023-06-24T13:54:17;36.90;60.90
54168;DHT22;68429;50.958;3.592;2023-06-24T13:56:42;37.00;60.10
54168;DHT22;68429;50.958;3.592;2023-06-24T13:59:08;38.10;59.90
54168;DHT22;68429;50.958;3.592;2023-06-24T14:01:35;38.90;59.70
54168;DHT22;68429;50.958;3.592;2023-06-24T14:04:01;39.10;59.70
54168;DHT22;68429;50.958;3.592;2023-06-24T14:06:27;39.70;59.70
54168;DHT22;68429;50.958;3.592;2023-06-24T14:08:53;39.90;58.20
54168;DHT22;68429;50.958;3.592;2023-06-24T14:11:18;40.10;56.80
54168;DHT22;68429;50.958;3.592;2023-06-24T14:13:44;39.10;58.30
54168;DHT22;68429;50.958;3.592;2023-06-24T14:16:10;39.90;58.30
54168;DHT22;68429;50.958;3.592;2023-06-24T14:18:37;36.10;59.40
54168;DHT22;68429;50.958;3.592;2023-06-24T14:21:04;33.70;61.70
54168;DHT22;68429;50.958;3.592;2023-06-24T14:23:31;35.80;62.10
54168;DHT22;68429;50.958;3.592;2023-06-24T14:25:57;37.00;60.10
54168;DHT22;68429;50.958;3.592;2023-06-24T14:28:23;37.30;59.70
54168;DHT22;68429;50.958;3.592;2023-06-24T14:30:49;38.20;57.10
54168;DHT22;68429;50.958;3.592;2023-06-24T14:33:15;38.40;58.10
54168;DHT22;68429;50.958;3.592;2023-06-24T14:35:41;39.00;58.50
54168;DHT22;68429;50.958;3.592;2023-06-24T14:38:06;38.30;59.50
54168;DHT22;68429;50.958;3.592;2023-06-24T14:40:32;38.10;57.40
54168;DHT22;68429;50.958;3.592;2023-06-24T14:42:58;36.90;58.20
54168;DHT22;68429;50.958;3.592;2023-06-24T14:45:24;36.50;59.20
54168;DHT22;68429;50.958;3.592;2023-06-24T14:47:50;36.40;59.10
54168;DHT22;68429;50.958;3.592;2023-06-24T14:50:16;36.90;60.30
54168;DHT22;68429;50.958;3.592;2023-06-24T14:52:41;38.00;58.70
54168;DHT22;68429;50.958;3.592;2023-06-24T14:55:08;38.50;58.00
54168;DHT22;68429;50.958;3.592;2023-06-24T14:57:34;39.30;57.50
54168;DHT22;68429;50.958;3.592;2023-06-24T15:00:00;39.70;57.10
54168;DHT22;68429;50.958;3.592;2023-06-24T15:02:26;37.70;58.00
54168;DHT22;68429;50.958;3.592;2023-06-24T15:04:52;37.50;60.00
54168;DHT22;68429;50.958;3.592;2023-06-24T15:07:17;38.20;58.90
54168;DHT22;68429;50.958;3.592;2023-06-24T15:09:43;38.20;56.20
54168;DHT22;68429;50.958;3.592;2023-06-24T15:12:09;37.00;56.30
54168;DHT22;68429;50.958;3.592;2023-06-24T15:14:36;35.00;58.30
54168;DHT22;68429;50.958;3.592;2023-06-24T15:17:02;34.00;58.60
54168;DHT22;68429;50.958;3.592;2023-06-24T15:19:27;34.90;60.00
54168;DHT22;68429;50.958;3.592;2023-06-24T15:21:53;35.90;60.20
54168;DHT22;68429;50.958;3.592;2023-06-24T15:24:19;36.50;58.30
54168;DHT22;68429;50.958;3.592;2023-06-24T15:26:45;36.70;58.00
54168;DHT22;68429;50.958;3.592;2023-06-24T15:29:10;36.80;58.10
54168;DHT22;68429;50.958;3.592;2023-06-24T15:31:36;36.80;57.00
54168;DHT22;68429;50.958;3.592;2023-06-24T15:34:02;36.10;57.10
54168;DHT22;68429;50.958;3.592;2023-06-24T15:36:27;36.20;56.90
54168;DHT22;68429;50.958;3.592;2023-06-24T15:38:54;36.30;57.10
54168;DHT22;68429;50.958;3.592;2023-06-24T15:41:21;36.40;56.30
54168;DHT22;68429;50.958;3.592;2023-06-24T15:43:46;36.50;55.60
54168;DHT22;68429;50.958;3.592;2023-06-24T15:46:12;37.10;55.60
54168;DHT22;68429;50.958;3.592;2023-06-24T15:48:38;37.60;55.30
54168;DHT22;68429;50.958;3.592;2023-06-24T15:51:03;37.50;57.10
54168;DHT22;68429;50.958;3.592;2023-06-24T15:53:29;37.50;57.20
54168;DHT22;68429;50.958;3.592;2023-06-24T15:55:55;37.60;56.40
54168;DHT22;68429;50.958;3.592;2023-06-24T15:58:21;37.10;56.70